Time;durP1;ratioP1;P1;durP2;ratioP2;P2;SDS_P1;SDS_P2;PMS_P1;PMS_P2;Temp;Humidity;BMP_temperature;BMP_pressure;BME280_temperature;BME280_humidity;BME280_pressure;Samples;Min_cycle;Max_cycle;Signal;HPM_P1;HPM_P2
2022/04/10 00:00:37;;;;;;;18.85;8.65;;;;;;;0.08;100.00;98766.28;4984619;28;20093;-87
2022/04/10 00:03:03;;;;;;;16.98;7.53;;;;;;;0.08;100.00;98774.03;4984543;28;20065;-87
2022/04/10 00:05:29;;;;;;;12.40;6.82;;;;;;;0.06;100.00;98770.56;4984433;28;20022;-87
2022/04/10 00:07:54;;;;;;;9.30;5.05;;;;;;;0.06;100.00;98771.41;4985632;28;20210;-87
2022/04/10 00:10:20;;;;;;;12.52;6.57;;;;;;;0.03;100.00;98770.50;4984487;28;20030;-87
2022/04/10 00:12:46;;;;;;;11.18;6.18;;;;;;;0.02;100.00;98774.78;4985523;28;20377;-87
2022/04/10 00:15:11;;;;;;;9.63;5.38;;;;;;;-0.13;99.94;98777.88;4984843;28;20065;-87
2022/04/10 00:17:38;;;;;;;14.60;6.35;;;;;;;-0.17;99.53;98783.81;4984463;28;20023;-87
2022/04/10 00:20:05;;;;;;;10.32;5.45;;;;;;;-0.18;99.63;98776.03;4984273;28;20026;-87
2022/04/10 00:22:31;;;;;;;9.32;5.00;;;;;;;-0.08;99.74;98784.06;4983930;28;20058;-87
2022/04/10 00:24:57;;;;;;;13.10;4.85;;;;;;;-0.22;99.97;98785.41;4985461;28;20062;-87
2022/04/10 00:27:22;;;;;;;11.07;4.47;;;;;;;-0.27;100.00;98781.84;4984084;28;20029;-87
2022/04/10 00:29:48;;;;;;;7.13;3.85;;;;;;;-0.22;100.00;98785.41;4984249;28;20030;-87
2022/04/10 00:32:13;;;;;;;16.52;4.75;;;;;;;-0.35;100.00;98788.53;4985276;28;20090;-87
2022/04/10 00:34:39;;;;;;;11.50;4.43;;;;;;;-0.25;100.00;98784.47;4985107;28;20253;-87
2022/04/10 00:37:05;;;;;;;9.50;5.05;;;;;;;-0.40;100.00;98778.91;4984138;28;20041;-87
2022/04/10 00:39:30;;;;;;;9.43;5.00;;;;;;;-0.43;100.00;98779.72;4985036;28;20027;-87
2022/04/10 00:41:56;;;;;;;8.98;5.43;;;;;;;-0.41;100.00;98783.19;4983912;28;20073;-87
2022/04/10 00:44:21;;;;;;;9.07;3.92;;;;;;;-0.39;100.00;98776.34;4983964;28;20313;-87
2022/04/10 00:46:49;;;;;;;9.68;3.33;;;;;;;-0.37;100.00;98768.66;4983900;28;20026;-87
2022/04/10 00:49:15;;;;;;;6.22;2.97;;;;;;;-0.31;100.00;98774.81;4983932;28;20029;-87
2022/04/10 00:51:43;;;;;;;7.63;3.30;;;;;;;-0.21;100.00;98783.72;4983859;28;20050;-87
2022/04/10 00:54:15;;;;;;;6.88;4.55;;;;;;;-0.15;100.00;98787.28;4983898;28;20018;-87
2022/04/10 00:56:41;;;;;;;6.30;3.13;;;;;;;-0.35;100.00;98782.47;4985028;28;20214;-87
2022/04/10 00:59:07;;;;;;;10.18;5.32;;;;;;;-0.40;100.00;98784.97;4983674;28;20040;-87
2022/04/10 01:01:34;;;;;;;9.25;4.32;;;;;;;-0.46;100.00;98789.97;4983680;28;20036;-87
2022/04/10 01:03:59;;;;;;;7.90;4.15;;;;;;;-0.41;100.00;98790.94;4983972;28;20101;-87
2022/04/10 01:06:25;;;;;;;5.43;3.35;;;;;;;-0.44;100.00;98788.28;4983713;28;20022;-87
2022/04/10 01:08:50;;;;;;;8.50;4.05;;;;;;;-0.51;100.00;98790.66;4983747;28;20325;-87
2022/04/10 01:11:17;;;;;;;9.10;4.05;;;;;;;-0.54;100.00;98791.47;4984735;28;20377;-87
2022/04/10 01:13:42;;;;;;;8.43;4.38;;;;;;;-0.46;100.00;98791.66;4983542;28;20195;-87
2022/04/10 01:16:08;;;;;;;11.07;4.80;;;;;;;-0.52;100.00;98789.81;4983560;28;20057;-87
2022/04/10 01:18:35;;;;;;;6.53;3.92;;;;;;;-0.56;100.00;98788.00;4987182;28;20321;-87
2022/04/10 01:21:02;;;;;;;13.52;5.60;;;;;;;-0.55;100.00;98794.91;4987659;28;20030;-87
2022/04/10 01:23:28;;;;;;;9.30;4.85;;;;;;;-0.49;100.00;98789.00;4987257;28;20038;-86
2022/04/10 01:25:53;;;;;;;6.75;3.63;;;;;;;-0.56;100.00;98793.16;4988659;28;20088;-87
2022/04/10 01:28:19;;;;;;;8.95;4.18;;;;;;;-0.57;100.00;98790.53;4987317;28;20030;-87
2022/04/10 01:30:44;;;;;;;4.22;3.22;;;;;;;-0.61;100.00;98791.25;4987507;28;20099;-87
2022/04/10 01:33:10;;;;;;;8.23;3.40;;;;;;;-0.56;100.00;98788.00;4987511;28;20050;-87
2022/04/10 01:35:36;;;;;;;5.95;3.60;;;;;;;-0.58;99.89;98794.81;4987252;28;20233;-87
2022/04/10 01:38:05;;;;;;;10.18;3.00;;;;;;;-0.68;99.71;98792.81;4987443;28;20026;-87
2022/04/10 01:40:30;;;;;;;5.85;3.13;;;;;;;-0.69;100.00;98801.38;4987356;28;20018;-87
2022/04/10 01:42:56;;;;;;;9.45;2.88;;;;;;;-0.71;100.00;98794.44;4988145;28;20023;-87
2022/04/10 01:45:21;;;;;;;5.68;3.10;;;;;;;-0.71;100.00;98800.50;4987398;28;20023;-87
2022/04/10 01:47:51;;;;;;;7.63;3.00;;;;;;;-0.75;99.90;98796.09;4987067;28;20110;-87
2022/04/10 01:50:17;;;;;;;5.68;2.42;;;;;;;-0.75;99.70;98800.38;4987999;28;20022;-87
2022/04/10 01:52:43;;;;;;;9.70;4.75;;;;;;;-0.84;99.38;98794.94;4987028;28;20099;-87
2022/04/10 01:55:09;;;;;;;5.22;2.53;;;;;;;-0.77;99.85;98805.50;4988211;28;20027;-87
2022/04/10 01:57:34;;;;;;;5.68;3.10;;;;;;;-0.74;99.56;98797.81;4986924;28;20442;-87
2022/04/10 02:00:00;;;;;;;4.45;2.85;;;;;;;-0.94;98.96;98804.16;4986996;28;20046;-87
2022/04/10 02:02:25;;;;;;;4.25;3.22;;;;;;;-0.91;99.84;98804.25;4986889;28;20037;-87
2022/04/10 02:04:51;;;;;;;6.55;3.17;;;;;;;-1.03;100.00;98793.56;4986867;28;20102;-87
2022/04/10 02:07:18;;;;;;;6.68;4.00;;;;;;;-0.95;100.00;98797.22;4986808;28;20018;-87
2022/04/10 02:09:43;;;;;;;4.97;3.22;;;;;;;-1.00;100.00;98793.66;4986669;28;20150;-87
2022/04/10 02:12:09;;;;;;;5.55;3.55;;;;;;;-0.92;100.00;98797.31;4986771;28;20015;-87
2022/04/10 02:14:34;;;;;;;8.07;5.05;;;;;;;-0.90;100.00;98793.06;4987737;28;20238;-87
2022/04/10 02:17:00;;;;;;;7.25;3.83;;;;;;;-0.85;100.00;98781.13;4986516;28;20072;-87
2022/04/10 02:19:25;;;;;;;7.93;3.67;;;;;;;-0.80;100.00;98792.47;4986593;28;20023;-87
2022/04/10 02:21:51;;;;;;;6.72;3.55;;;;;;;-0.79;100.00;98788.19;4986374;28;20329;-87
2022/04/10 02:24:17;;;;;;;7.35;3.42;;;;;;;-0.76;100.00;98789.13;4986249;28;20073;-86
2022/04/10 02:26:42;;;;;;;12.32;3.63;;;;;;;-0.73;100.00;98786.63;4987611;28;20026;-87
2022/04/10 02:29:08;;;;;;;9.02;3.40;;;;;;;-0.67;100.00;98789.41;4986259;28;20034;-87
2022/04/10 02:31:33;;;;;;;9.40;4.72;;;;;;;-0.58;100.00;98791.34;4987679;28;20022;-87
2022/04/10 02:34:00;;;;;;;6.55;3.13;;;;;;;-0.63;100.00;98780.88;4987514;28;20085;-87
2022/04/10 02:36:25;;;;;;;8.45;4.28;;;;;;;-0.74;99.78;98779.72;4986172;28;20218;-87
2022/04/10 02:38:51;;;;;;;12.68;4.68;;;;;;;-0.68;100.00;98790.25;4987278;28;20023;-87
2022/04/10 02:41:18;;;;;;;4.75;3.10;;;;;;;-0.67;100.00;98784.22;4986308;28;20050;-87
2022/04/10 02:43:43;;;;;;;16.05;5.30;;;;;;;-0.56;100.00;98792.28;4986124;28;20106;-87
2022/04/10 02:46:08;;;;;;;8.60;3.78;;;;;;;-0.45;100.00;98796.00;4986154;28;20134;-87
2022/04/10 02:48:34;;;;;;;4.95;3.17;;;;;;;-0.32;100.00;98801.53;4985907;28;20030;-87
2022/04/10 02:51:01;;;;;;;15.85;3.08;;;;;;;-0.32;100.00;98809.28;4987208;28;20254;-87
2022/04/10 02:53:26;;;;;;;4.18;2.65;;;;;;;-0.21;100.00;98802.69;4987161;28;20026;-87
2022/04/10 02:55:52;;;;;;;4.90;3.45;;;;;;;-0.19;100.00;98806.16;4986078;28;20023;-87
2022/04/10 02:58:17;;;;;;;6.68;4.05;;;;;;;-0.21;100.00;98814.75;4985993;28;20033;-87
2022/04/10 03:00:43;;;;;;;7.13;3.63;;;;;;;-0.13;100.00;98810.63;4985726;28;20102;-87
2022/04/10 03:03:08;;;;;;;4.63;2.95;;;;;;;-0.12;100.00;98823.59;4985741;28;20046;-87
2022/04/10 03:05:34;;;;;;;5.43;3.63;;;;;;;-0.14;100.00;98822.69;4985695;28;20045;-87
2022/04/10 03:07:59;;;;;;;3.65;2.42;;;;;;;0.01;100.00;98819.63;4985842;28;20038;-87
2022/04/10 03:10:25;;;;;;;5.30;3.35;;;;;;;0.08;100.00;98820.63;4985504;28;20222;-87
2022/04/10 03:12:50;;;;;;;5.93;3.67;;;;;;;0.25;100.00;98824.50;4985639;28;20393;-87
2022/04/10 03:15:16;;;;;;;4.30;2.92;;;;;;;0.29;100.00;98821.16;4985467;28;20029;-87
2022/04/10 03:17:41;;;;;;;10.93;3.95;;;;;;;0.37;100.00;98825.66;4985657;28;20046;-87
2022/04/10 03:20:07;;;;;;;4.05;2.78;;;;;;;0.45;100.00;98825.84;4985436;28;20045;-87
2022/04/10 03:22:33;;;;;;;5.45;3.30;;;;;;;0.64;100.00;98820.25;4985037;28;20346;-87
2022/04/10 03:24:58;;;;;;;5.43;3.47;;;;;;;0.67;100.00;98813.44;4985448;28;20035;-87
2022/04/10 03:27:24;;;;;;;5.53;4.03;;;;;;;0.79;100.00;98818.84;4985370;28;20027;-87
2022/04/10 03:29:49;;;;;;;8.68;4.07;;;;;;;0.79;100.00;98820.59;4985311;28;20034;-87
2022/04/10 03:32:15;;;;;;;6.60;3.70;;;;;;;0.74;100.00;98822.19;4985298;28;20348;-87
2022/04/10 03:34:40;;;;;;;7.20;3.42;;;;;;;0.85;100.00;98820.72;4986410;28;20055;-87
2022/04/10 03:37:06;;;;;;;8.13;3.88;;;;;;;0.98;100.00;98828.75;4985388;28;20018;-87
2022/04/10 03:39:31;;;;;;;5.05;3.13;;;;;;;0.97;100.00;98828.72;4985537;28;20094;-87
2022/04/10 03:41:57;;;;;;;5.32;3.55;;;;;;;1.06;100.00;98826.34;4984733;28;20057;-87
2022/04/10 03:44:22;;;;;;;9.23;4.35;;;;;;;1.10;100.00;98830.72;4986201;28;20027;-87
2022/04/10 03:46:47;;;;;;;6.88;3.72;;;;;;;1.12;100.00;98831.66;4985115;28;20037;-87
2022/04/10 03:49:13;;;;;;;6.55;4.00;;;;;;;1.17;100.00;98832.63;4984833;28;20146;-87
2022/04/10 03:51:38;;;;;;;10.00;3.95;;;;;;;1.11;100.00;98830.75;4984668;28;20060;-88
2022/04/10 03:54:04;;;;;;;7.43;3.95;;;;;;;1.18;100.00;98826.59;4984017;28;20081;-87
2022/04/10 03:56:29;;;;;;;7.80;3.58;;;;;;;1.18;100.00;98836.97;4984457;28;20023;-87
2022/04/10 03:58:55;;;;;;;6.20;3.13;;;;;;;1.24;100.00;98837.09;4984389;28;20309;-87
2022/04/10 04:01:20;;;;;;;10.88;4.22;;;;;;;1.19;100.00;98839.59;4983732;28;20199;-87
2022/04/10 04:03:46;;;;;;;14.15;3.95;;;;;;;1.21;100.00;98840.50;4983306;28;20379;-87
2022/04/10 04:06:11;;;;;;;6.40;3.78;;;;;;;1.28;100.00;98841.50;4983667;28;20106;-87
2022/04/10 04:08:38;;;;;;;10.18;3.80;;;;;;;1.19;100.00;98849.06;4983758;28;20225;-87
2022/04/10 04:11:03;;;;;;;5.60;3.35;;;;;;;1.01;100.00;98844.38;4983777;28;20069;-87
2022/04/10 04:13:28;;;;;;;6.75;3.67;;;;;;;1.04;100.00;98848.78;4983495;28;20027;-87
2022/04/10 04:15:54;;;;;;;5.70;3.50;;;;;;;1.12;100.00;98852.38;4983840;28;20154;-87
2022/04/10 04:18:19;;;;;;;8.85;3.17;;;;;;;1.09;100.00;98853.22;4983377;28;20361;-87
2022/04/10 04:20:45;;;;;;;7.72;3.65;;;;;;;1.14;100.00;98855.91;4983342;28;20022;-88
2022/04/10 04:23:10;;;;;;;8.07;3.30;;;;;;;1.18;100.00;98866.38;4983289;28;20037;-87
2022/04/10 04:25:36;;;;;;;13.73;5.13;;;;;;;1.21;100.00;98865.53;4983309;28;20049;-87
2022/04/10 04:28:01;;;;;;;7.55;3.70;;;;;;;1.25;100.00;98860.47;4984429;28;20027;-86
2022/04/10 04:30:26;;;;;;;6.40;3.58;;;;;;;1.29;100.00;98861.38;4982905;28;20389;-86
2022/04/10 04:32:52;;;;;;;7.53;3.63;;;;;;;1.31;100.00;98865.78;4983328;28;20019;-86
2022/04/10 04:35:17;;;;;;;10.70;3.63;;;;;;;1.26;100.00;98871.69;4982947;28;20027;-87
2022/04/10 04:37:43;;;;;;;6.10;3.83;;;;;;;1.37;100.00;98865.00;4983193;28;20030;-86
2022/04/10 04:40:10;;;;;;;5.85;3.42;;;;;;;1.30;100.00;98870.94;4983329;28;20089;-87
2022/04/10 04:42:35;;;;;;;5.78;3.53;;;;;;;1.23;100.00;98876.84;4984378;28;20027;-88
2022/04/10 04:45:01;;;;;;;5.93;3.65;;;;;;;1.27;100.00;98881.22;4983962;28;20049;-88
2022/04/10 04:47:26;;;;;;;6.68;3.65;;;;;;;1.18;100.00;98883.63;4983411;28;20031;-88
2022/04/10 04:49:51;;;;;;;8.30;4.07;;;;;;;1.25;100.00;98890.69;4983781;28;20034;-88
2022/04/10 04:52:18;;;;;;;9.48;4.80;;;;;;;1.25;100.00;98895.88;4984186;28;20019;-88
2022/04/10 04:54:44;;;;;;;8.27;3.33;;;;;;;1.27;100.00;98886.41;4983876;28;20313;-89
2022/04/10 04:57:09;;;;;;;7.30;4.15;;;;;;;1.26;100.00;98892.41;4983274;28;20033;-89
2022/04/10 04:59:35;;;;;;;6.93;3.88;;;;;;;1.30;100.00;98884.75;4984624;28;20340;-88
2022/04/10 05:02:00;;;;;;;9.40;4.22;;;;;;;1.29;100.00;98887.31;4983793;28;20027;-88
2022/04/10 05:04:26;;;;;;;7.47;4.65;;;;;;;1.27;100.00;98894.19;4983696;28;20089;-87
2022/04/10 05:06:51;;;;;;;9.13;4.90;;;;;;;1.40;100.00;98891.91;4983724;28;20089;-88
2022/04/10 05:09:17;;;;;;;9.88;4.57;;;;;;;1.57;100.00;98900.88;4984024;28;20035;-88
2022/04/10 05:11:42;;;;;;;10.90;5.10;;;;;;;1.48;100.00;98899.81;4983732;28;20025;-89
2022/04/10 05:14:08;;;;;;;12.23;5.53;;;;;;;1.39;100.00;98899.66;4983929;28;20102;-89
2022/04/10 05:16:33;;;;;;;12.73;5.13;;;;;;;1.44;100.00;98898.00;4984476;28;20225;-89
2022/04/10 05:18:58;;;;;;;10.73;4.43;;;;;;;1.46;100.00;98901.50;4985135;28;20026;-89
2022/04/10 05:21:24;;;;;;;8.93;4.90;;;;;;;1.52;100.00;98901.63;4983825;28;20214;-90
2022/04/10 05:23:49;;;;;;;11.00;4.43;;;;;;;1.54;100.00;98905.13;4984104;28;20030;-89
2022/04/10 05:26:15;;;;;;;10.13;5.28;;;;;;;1.63;100.00;98894.94;4983903;28;20222;-90
2022/04/10 05:28:40;;;;;;;11.02;5.95;;;;;;;1.65;100.00;98906.22;4983572;28;20033;-90
2022/04/10 05:31:06;;;;;;;10.32;4.95;;;;;;;1.74;100.00;98909.00;4985015;28;20041;-89
2022/04/10 05:33:35;;;;;;;12.23;4.57;;;;;;;1.79;100.00;98913.44;4983985;28;20061;-90
2022/04/10 05:36:01;;;;;;;7.88;4.40;;;;;;;1.81;100.00;98921.25;4984271;28;20022;-90
2022/04/10 05:38:28;;;;;;;16.33;5.30;;;;;;;1.83;100.00;98914.34;4985513;28;20019;-90
2022/04/10 05:40:54;;;;;;;8.77;5.03;;;;;;;1.81;100.00;98924.69;4984266;28;20054;-90
2022/04/10 05:43:23;;;;;;;9.40;5.15;;;;;;;1.85;100.00;98928.22;4984259;28;20034;-90
2022/04/10 05:45:49;;;;;;;9.15;4.75;;;;;;;1.97;100.00;98929.31;4984618;28;20242;-90
2022/04/10 05:48:15;;;;;;;7.18;4.35;;;;;;;2.08;100.00;98937.31;4984240;28;20029;-90
2022/04/10 05:50:41;;;;;;;8.35;4.75;;;;;;;2.12;100.00;98934.81;4984226;28;20022;-90
2022/04/10 05:53:07;;;;;;;12.68;5.50;;;;;;;1.92;100.00;98932.69;4984212;28;20018;-90
2022/04/10 05:55:32;;;;;;;9.20;5.18;;;;;;;1.97;100.00;98939.72;4984527;28;20023;-90
2022/04/10 05:57:58;;;;;;;9.57;4.72;;;;;;;2.06;100.00;98944.22;4984485;28;20023;-90
2022/04/10 06:00:24;;;;;;;11.90;4.95;;;;;;;2.23;100.00;98953.19;4984065;28;20280;-90
2022/04/10 06:02:50;;;;;;;11.63;5.85;;;;;;;2.37;100.00;98946.50;4985065;28;20069;-90
2022/04/10 06:05:17;;;;;;;52.63;19.35;;;;;;;2.43;100.00;98957.00;4987603;28;20054;-90
2022/04/10 06:07:43;;;;;;;23.42;10.43;;;;;;;2.44;100.00;98958.78;4987801;28;20026;-90
2022/04/10 06:10:09;;;;;;;12.70;7.20;;;;;;;2.70;100.00;98957.50;4987651;28;20022;-90
2022/04/10 06:12:34;;;;;;;13.73;6.55;;;;;;;3.19;98.17;98962.59;4987615;28;20019;-90
2022/04/10 06:15:00;;;;;;;12.40;7.50;;;;;;;3.11;97.45;98960.75;4987651;28;20022;-90
2022/04/10 06:17:25;;;;;;;11.93;6.00;;;;;;;3.09;97.37;98958.13;4987582;28;20030;-90
2022/04/10 06:19:51;;;;;;;11.95;6.15;;;;;;;3.10;97.62;98956.41;4988080;28;20257;-90
2022/04/10 06:22:16;;;;;;;11.73;5.85;;;;;;;3.13;97.44;98965.09;4987340;28;20281;-90
2022/04/10 06:24:42;;;;;;;12.25;5.88;;;;;;;3.32;97.28;98972.31;4987578;28;20058;-90
2022/04/10 06:27:07;;;;;;;14.23;6.38;;;;;;;3.34;96.93;98970.63;4987533;28;20218;-90
2022/04/10 06:29:33;;;;;;;9.65;5.47;;;;;;;3.43;97.26;98973.38;4987434;28;20070;-90
2022/04/10 06:31:58;;;;;;;12.15;6.07;;;;;;;3.57;96.73;98974.41;4987401;28;20094;-90
2022/04/10 06:34:23;;;;;;;11.25;6.70;;;;;;;3.52;97.02;98970.91;4988376;28;20023;-90
2022/04/10 06:36:49;;;;;;;15.38;6.72;;;;;;;3.60;96.97;98971.84;4988228;28;20025;-90
2022/04/10 06:39:18;;;;;;;12.68;5.80;;;;;;;3.58;96.91;98972.69;4987220;28;20094;-90
2022/04/10 06:41:44;;;;;;;17.27;8.15;;;;;;;3.67;96.97;98976.28;4987537;28;20249;-90
2022/04/10 06:44:09;;;;;;;16.02;6.68;;;;;;;3.75;96.28;98974.66;4987075;28;20102;-90
2022/04/10 06:46:35;;;;;;;18.73;7.35;;;;;;;3.83;96.02;98973.03;4987143;28;20023;-90
2022/04/10 06:49:01;;;;;;;8.82;5.63;;;;;;;3.95;95.94;98978.38;4987286;28;20019;-90
2022/04/10 06:51:27;;;;;;;12.88;5.82;;;;;;;4.10;95.42;98972.47;4986914;28;20217;-90
2022/04/10 06:53:52;;;;;;;15.50;5.13;;;;;;;4.20;96.00;98985.63;4987012;28;20285;-90
2022/04/10 06:56:18;;;;;;;17.17;6.47;;;;;;;4.36;95.47;98984.94;4987036;28;20023;-90
2022/04/10 06:58:43;;;;;;;9.80;5.18;;;;;;;4.38;95.16;98983.22;4986843;28;20054;-90
2022/04/10 07:01:09;;;;;;;10.48;5.35;;;;;;;4.60;94.49;98986.03;4987007;28;20102;-90
2022/04/10 07:03:34;;;;;;;9.68;5.53;;;;;;;4.73;94.71;98987.91;4986838;28;20054;-90
2022/04/10 07:06:00;;;;;;;12.85;5.40;;;;;;;4.92;93.61;99000.25;4987831;28;20066;-90
2022/04/10 07:08:26;;;;;;;11.27;6.25;;;;;;;5.02;92.63;99002.06;4986962;28;20102;-90
2022/04/10 07:10:53;;;;;;;16.13;6.10;;;;;;;5.07;92.53;98995.16;4987948;28;20026;-90
2022/04/10 07:13:20;;;;;;;12.13;5.15;;;;;;;4.94;91.76;98998.53;4986987;28;20014;-90
2022/04/10 07:15:47;;;;;;;13.52;5.25;;;;;;;5.14;92.02;98991.72;4985850;28;20054;-90
2022/04/10 07:18:13;;;;;;;10.45;4.32;;;;;;;5.14;91.74;98989.13;4986796;28;20302;-90
2022/04/10 07:20:38;;;;;;;12.57;5.30;;;;;;;5.36;90.73;98980.56;4986514;28;20022;-90
2022/04/10 07:25:48;;;;;;;11.13;4.70;;;;;;;5.47;89.12;98994.59;4987656;28;20356;-90
2022/04/10 07:28:14;;;;;;;10.40;4.90;;;;;;;5.58;90.33;98988.56;4986264;28;20029;-90
2022/04/10 07:30:39;;;;;;;8.88;4.68;;;;;;;5.73;88.92;98991.25;4986345;28;20042;-90
2022/04/10 07:33:06;;;;;;;7.95;4.60;;;;;;;5.94;88.13;98996.63;4986316;28;20067;-90
2022/04/10 07:35:34;;;;;;;9.70;4.90;;;;;;;6.22;87.53;99002.81;4986607;28;20314;-90
2022/04/10 07:38:00;;;;;;;12.23;4.38;;;;;;;6.08;86.24;98999.31;4986049;28;20314;-90
2022/04/10 07:40:26;;;;;;;8.93;4.22;;;;;;;6.52;86.95;99002.94;4986226;28;20098;-90
2022/04/10 07:42:52;;;;;;;7.40;4.65;;;;;;;6.63;87.19;99001.19;4986020;28;20031;-90
2022/04/10 07:48:02;;;;;;;10.93;4.32;;;;;;;6.89;85.44;99015.19;4987168;28;20066;-90
2022/04/10 07:50:31;;;;;;;7.82;4.50;;;;;;;7.22;85.34;99014.34;4987331;28;20027;-90
2022/04/10 07:52:57;;;;;;;9.88;4.72;;;;;;;7.41;84.30;99021.31;4985667;28;20214;-90
2022/04/10 07:55:23;;;;;;;7.60;4.65;;;;;;;7.96;83.05;99018.59;4986836;28;20090;-90
2022/04/10 07:57:49;;;;;;;9.60;4.43;;;;;;;8.21;82.49;99025.50;4986112;28;20026;-90
2022/04/10 08:00:16;;;;;;;10.82;4.40;;;;;;;8.15;81.28;99020.28;4985792;28;20019;-90
2022/04/10 08:02:46;;;;;;;13.30;4.60;;;;;;;8.38;80.82;99018.47;4985954;28;20302;-90
2022/04/10 08:05:13;;;;;;;8.52;4.70;;;;;;;8.28;79.92;99022.00;4985850;28;20045;-90
2022/04/10 08:07:38;;;;;;;6.55;4.05;;;;;;;8.25;79.31;99023.75;4985571;28;20023;-91
2022/04/10 08:10:04;;;;;;;6.63;3.72;;;;;;;8.53;78.31;99021.00;4985436;28;20023;-90
2022/04/10 08:12:30;;;;;;;8.85;4.35;;;;;;;8.17;80.08;99028.13;4986858;28;20022;-90
2022/04/10 08:14:55;;;;;;;10.57;4.57;;;;;;;8.31;77.26;99032.47;4985738;28;20023;-90
2022/04/10 08:17:20;;;;;;;13.57;5.03;;;;;;;8.38;78.05;99023.69;4985396;28;20030;-90
2022/04/10 08:19:46;;;;;;;6.63;3.63;;;;;;;8.55;78.08;99032.34;4985237;28;20023;-90
2022/04/10 08:22:11;;;;;;;11.00;4.85;;;;;;;8.96;76.68;99028.63;4985258;28;20019;-90
2022/04/10 08:24:37;;;;;;;7.90;4.55;;;;;;;9.70;76.35;99031.50;4985221;28;20093;-91
2022/04/10 08:27:03;;;;;;;5.97;3.90;;;;;;;10.66;71.73;99031.28;4985391;28;20026;-90
2022/04/10 08:29:29;;;;;;;9.20;4.22;;;;;;;11.63;67.59;99030.69;4985553;28;20114;-90
2022/04/10 08:31:54;;;;;;;8.45;3.80;;;;;;;12.77;65.41;99039.00;4984992;28;20385;-91
2022/04/10 08:34:20;;;;;;;9.85;3.97;;;;;;;12.81;65.51;99039.78;4984884;28;20026;-91
2022/04/10 08:36:45;;;;;;;5.00;3.13;;;;;;;13.57;59.99;99041.56;4985075;28;20025;-91
2022/04/10 08:39:11;;;;;;;8.73;4.15;;;;;;;13.88;62.27;99039.84;4985180;28;20031;-91
2022/04/10 08:41:37;;;;;;;7.60;3.83;;;;;;;13.84;59.21;99043.50;4985137;28;20029;-91
2022/04/10 08:44:04;;;;;;;9.27;3.95;;;;;;;14.31;58.60;99045.78;4985230;28;20070;-91
2022/04/10 08:46:33;;;;;;;5.05;3.28;;;;;;;13.96;59.47;99048.47;4985157;28;20018;-91
2022/04/10 08:48:59;;;;;;;7.32;3.63;;;;;;;14.36;58.82;99043.84;4984701;28;20030;-91
2022/04/10 08:51:27;;;;;;;9.93;4.50;;;;;;;14.98;57.45;99040.25;4984923;28;20022;-91
2022/04/10 08:53:54;;;;;;;5.25;3.17;;;;;;;15.44;57.88;99051.19;4984934;28;20034;-91
2022/04/10 08:56:22;;;;;;;8.25;4.03;;;;;;;16.11;56.07;99044.50;4984538;28;20029;-91
2022/04/10 08:58:48;;;;;;;7.75;3.80;;;;;;;16.40;54.95;99047.88;4984540;28;20023;-91
2022/04/10 09:01:19;;;;;;;6.82;3.58;;;;;;;16.24;53.51;99038.72;4984861;28;20069;-91
2022/04/10 09:03:46;;;;;;;7.15;3.92;;;;;;;16.12;53.70;99044.44;4985010;28;20022;-91
2022/04/10 09:06:12;;;;;;;8.00;3.95;;;;;;;15.82;52.48;99040.19;4984610;28;20026;-91
2022/04/10 09:08:38;;;;;;;9.80;3.88;;;;;;;15.85;53.97;99037.41;4984728;28;20081;-91
2022/04/10 09:11:05;;;;;;;8.15;3.83;;;;;;;15.77;55.48;99036.84;4984447;28;20027;-91
2022/04/10 09:13:36;;;;;;;7.43;3.78;;;;;;;15.92;54.16;99043.41;4984462;28;20022;-91
2022/04/10 09:16:33;;;;;;;6.50;3.65;;;;;;;15.85;51.94;99037.41;4985454;28;20273;-91
2022/04/10 09:19:08;;;;;;;8.88;3.55;;;;;;;15.61;54.77;99038.25;4984295;28;20065;-91
2022/04/10 09:21:36;;;;;;;8.70;3.80;;;;;;;16.04;52.17;99038.53;4984374;28;20045;-91
2022/04/10 09:24:12;;;;;;;7.88;3.85;;;;;;;16.20;51.36;99039.72;4984151;28;20046;-91
2022/04/10 09:26:52;;;;;;;8.65;3.25;;;;;;;16.20;52.22;99034.41;4984442;28;20049;-91
2022/04/10 09:29:22;;;;;;;3.85;2.92;;;;;;;16.58;51.73;99044.56;4984401;28;20050;-91
2022/04/10 09:31:49;;;;;;;7.75;3.47;;;;;;;16.84;50.43;99040.94;4984171;28;20314;-91
2022/04/10 09:34:20;;;;;;;6.78;3.35;;;;;;;16.45;51.62;99029.97;4984248;28;20046;-91
2022/04/10 09:36:47;;;;;;;7.90;3.50;;;;;;;16.89;51.83;99026.53;4984631;28;20046;-91
2022/04/10 09:39:33;;;;;;;6.05;3.40;;;;;;;17.08;50.89;99030.22;4987085;28;20045;-91
2022/04/10 09:42:03;;;;;;;6.13;3.28;;;;;;;17.20;48.47;99036.84;4988029;28;20076;-91
2022/04/10 09:44:32;;;;;;;10.60;3.47;;;;;;;15.95;50.53;99028.22;4987897;28;20023;-91
2022/04/10 09:47:02;;;;;;;5.78;2.88;;;;;;;16.84;49.07;99028.50;4987861;28;20089;-91
2022/04/10 09:49:33;;;;;;;8.13;3.83;;;;;;;17.65;47.19;99028.84;4987894;28;20333;-91
2022/04/10 09:52:15;;;;;;;4.88;2.70;;;;;;;17.71;46.76;99028.56;4988101;28;20075;-91
2022/04/10 09:54:41;;;;;;;7.43;3.23;;;;;;;17.55;46.94;99019.50;4988291;28;20073;-91
2022/04/10 09:57:20;;;;;;;5.40;3.30;;;;;;;16.18;48.74;99025.66;4988011;28;20218;-91
2022/04/10 09:59:47;;;;;;;6.40;3.50;;;;;;;15.34;51.99;99017.88;4988054;28;20214;-91
2022/04/10 10:02:15;;;;;;;5.18;2.70;;;;;;;15.10;53.14;99029.28;4988149;28;20328;-91
2022/04/10 10:04:42;;;;;;;5.93;3.30;;;;;;;15.02;50.42;99021.56;4987587;28;20069;-91
2022/04/10 10:07:16;;;;;;;5.93;3.30;;;;;;;15.04;52.25;99018.88;4971722;28;20322;-91
2022/04/10 10:09:42;;;;;;;7.32;3.10;;;;;;;15.23;51.57;99014.72;4989032;28;20095;-91
2022/04/10 10:12:09;;;;;;;5.75;2.78;;;;;;;14.20;50.79;99014.25;4987683;28;20031;-91
2022/04/10 10:14:36;;;;;;;8.68;3.05;;;;;;;14.55;50.69;99018.59;4988127;28;20256;-91
2022/04/10 10:17:04;;;;;;;8.23;3.13;;;;;;;15.21;50.74;99016.53;4988130;28;20030;-91
2022/04/10 10:19:35;;;;;;;6.13;3.28;;;;;;;15.25;50.53;99012.88;4987673;28;20118;-91
2022/04/10 10:22:03;;;;;;;4.57;2.67;;;;;;;15.36;50.88;99010.75;4987647;28;20025;-91
2022/04/10 10:24:45;;;;;;;7.50;2.92;;;;;;;15.33;50.24;99007.31;4987459;28;20280;-91
2022/04/10 10:27:18;;;;;;;9.43;3.57;;;;;;;14.81;51.51;99002.81;4988731;28;20034;-91
2022/04/10 10:30:09;;;;;;;4.72;2.40;;;;;;;14.06;52.12;99002.31;4987488;28;20026;-91
2022/04/10 10:32:37;;;;;;;6.05;2.63;;;;;;;13.55;52.85;98993.13;4987132;28;20023;-91
2022/04/10 10:35:03;;;;;;;4.85;2.60;;;;;;;13.19;51.16;98989.59;4987198;28;20065;-90
2022/04/10 10:37:31;;;;;;;3.38;2.15;;;;;;;12.84;51.88;99002.72;4987290;28;20262;-91
2022/04/10 10:39:58;;;;;;;5.50;2.90;;;;;;;12.57;52.40;99004.19;4987201;28;20041;-91
2022/04/10 10:42:24;;;;;;;5.18;2.22;;;;;;;12.46;53.80;99000.03;4987065;28;20089;-90
2022/04/10 10:44:51;;;;;;;5.38;2.67;;;;;;;12.32;54.06;98997.72;4988661;28;20027;-90
2022/04/10 10:47:26;;;;;;;5.45;2.80;;;;;;;12.36;53.41;98994.09;4987095;28;20019;-91
2022/04/10 10:49:53;;;;;;;11.85;3.20;;;;;;;12.26;54.90;98992.56;4986761;28;20025;-91
2022/04/10 10:52:19;;;;;;;3.38;2.35;;;;;;;12.18;55.80;98988.34;4987193;28;20029;-91
2022/04/10 10:54:56;;;;;;;4.93;2.67;;;;;;;12.05;55.14;98985.06;4986751;28;20027;-91
2022/04/10 10:57:22;;;;;;;4.05;2.50;;;;;;;11.96;57.06;98987.88;4987105;28;20019;-90
2022/04/10 10:59:50;;;;;;;5.00;2.65;;;;;;;11.78;57.66;98985.59;4986812;28;20022;-91
2022/04/10 11:02:20;;;;;;;3.65;2.45;;;;;;;11.45;58.38;98983.50;4987784;28;20042;-91
2022/04/10 11:04:50;;;;;;;5.05;2.38;;;;;;;10.49;60.93;98990.28;4986775;28;20086;-90
2022/04/10 11:07:19;;;;;;;7.25;2.97;;;;;;;10.37;62.26;98985.19;4986777;28;20026;-91
2022/04/10 11:10:00;;;;;;;6.43;2.83;;;;;;;10.68;60.99;98991.78;4986762;28;20318;-91
2022/04/10 11:12:33;;;;;;;6.72;2.55;;;;;;;10.67;63.27;98995.31;4986592;28;20363;-90
2022/04/10 11:15:03;;;;;;;4.25;2.40;;;;;;;10.40;63.48;98995.66;4987617;28;20027;-90
2022/04/10 11:17:31;;;;;;;5.53;2.38;;;;;;;10.05;65.69;98998.72;4986454;28;20102;-90
2022/04/10 11:20:05;;;;;;;4.43;2.00;;;;;;;9.79;67.57;99002.50;4986332;28;20022;-90
2022/04/10 11:22:53;;;;;;;6.63;2.50;;;;;;;9.38;69.52;99002.91;4986138;28;20039;-91
2022/04/10 11:25:28;;;;;;;4.55;2.67;;;;;;;9.17;69.27;98997.81;4986320;28;20023;-91
2022/04/10 11:27:59;;;;;;;9.73;3.03;;;;;;;9.29;69.92;98996.84;4986309;28;20027;-90
2022/04/10 11:30:32;;;;;;;4.72;2.28;;;;;;;9.26;71.41;98991.63;4986175;28;20095;-90
2022/04/10 11:32:57;;;;;;;5.10;2.03;;;;;;;9.34;71.41;98987.19;4986490;28;20023;-90
2022/04/10 11:35:34;;;;;;;8.95;2.55;;;;;;;9.28;71.75;98981.97;4986680;28;20027;-91